Portada
METAR-TAF:

METAR-TAF

Aeroports :

Bandar Abbas, Iran

latitud: 27-13N, longitud: 056-22E, altitud: 10 m

Observació

L'informe es va fer fa 9 minuts, a les 08:30 UTC
Vent calma
Temperatura 30°C
Humitat 12%
Pressió 1016 hPa
Visibilitat 10 km o més
sense núvols per sota de 1500 mi sense presència de cumulonimbus.

METAR: OIKB 120830Z 00000KT CAVOK 30/M03 Q1015 A2999

Hora: 12:09 (08:39 UTC)

Pronòstic

L'informe es va fer fa 2 hores i 59 minuts, a les 05:40 UTC
Pronòstic vàlid del 12 a les 06 UTC al 13 a les 12 UTC
Vent 10 kt del Est/Nord-Est
Visibilitat 10 km o més
sense núvols per sota de 1500 mi sense presència de cumulonimbus.
Temporalment
l' 12 a les 09 UTC al 12 a les 15 UTC
Vent 20 kt del Est/Nord-Est
Temporalment
l' 13 a les 09 UTC al 13 a les 12 UTC
Vent 20 kt del Est/Nord-Est

TAF: OIKB 120540Z 1206/1312 07010KT CAVOK TEMPO 1209/1215 07020KT TEMPO 1309/1312 07020KT

Observacions i pronòstics meteorològics de més de 4000 aeroports (METAR i TAF).

Les estacions disponibles són els punts grocs i vermells al mapa.

Posi el ratolí al punt desitjat per veure el nom de l'estació.

Feu clic per veure les observacions i els pronòstics meteorològics.

Per canviar el mapa: feu clic els botons verds amb una creu de color negre per apropar; al botó verd amb un guió per allunyar la imatge; o en les fletxes verdes per a mapes adjacents.


METAR-TAF: